Time;durP1;ratioP1;P1;durP2;ratioP2;P2;SDS_P1;SDS_P2;PMS_P1;PMS_P2;Temp;Humidity;BMP_temperature;BMP_pressure;BME280_temperature;BME280_humidity;BME280_pressure;Samples;Min_cycle;Max_cycle;Signal;HPM_P1;HPM_P2
2023/03/06 00:00:58;;;;;;;3.87;3.43;;;;;;;7.42;64.28;100526.34;6216895;28;20257;-68
2023/03/06 00:04:19;;;;;;;4.97;4.53;;;;;;;7.37;64.78;100525.84;6206639;28;20232;-69
2023/03/06 00:07:40;;;;;;;4.20;3.47;;;;;;;7.26;65.40;100532.06;6211930;28;20311;-69
2023/03/06 00:11:02;;;;;;;3.93;3.40;;;;;;;7.55;63.35;100528.88;6213718;28;20320;-70
2023/03/06 00:14:23;;;;;;;3.50;3.13;;;;;;;6.99;65.92;100514.66;6206183;28;20249;-69
2023/03/06 00:17:44;;;;;;;5.70;3.10;;;;;;;7.25;64.78;100510.75;6215267;28;20252;-69
2023/03/06 00:21:07;;;;;;;4.67;3.67;;;;;;;6.97;65.84;100505.91;6216474;28;20229;-70
2023/03/06 00:24:27;;;;;;;4.40;3.43;;;;;;;7.16;65.74;100511.50;6212878;28;20229;-69
2023/03/06 00:27:51;;;;;;;3.43;2.40;;;;;;;6.91;64.84;100509.06;6205570;28;20233;-70
2023/03/06 00:31:11;;;;;;;3.97;2.97;;;;;;;6.71;66.06;100502.63;6213129;28;20229;-67
2023/03/06 00:34:32;;;;;;;2.67;1.97;;;;;;;6.99;65.58;100503.94;6209203;28;20674;-69
2023/03/06 00:37:53;;;;;;;2.80;2.53;;;;;;;6.90;64.93;100497.53;6199832;28;20221;-69
2023/03/06 00:41:14;;;;;;;1.87;1.73;;;;;;;5.90;67.84;100509.88;6206126;28;20229;-69
2023/03/06 00:44:36;;;;;;;2.43;1.87;;;;;;;6.05;66.14;100510.53;6207800;28;20224;-69
2023/03/06 00:47:57;;;;;;;1.73;1.57;;;;;;;6.46;65.54;100510.88;6207398;28;20603;-70
2023/03/06 00:51:20;;;;;;;3.30;1.70;;;;;;;6.91;64.56;100514.44;6220556;28;20263;-69
2023/03/06 00:54:41;;;;;;;2.27;1.63;;;;;;;6.60;64.78;100523.16;6203591;28;20631;-69
2023/03/06 00:58:02;;;;;;;1.93;1.40;;;;;;;6.50;65.40;100517.69;6207682;28;20319;-69
2023/03/06 01:01:24;;;;;;;1.97;1.47;;;;;;;6.35;64.68;100514.38;6196252;28;20495;-69
2023/03/06 01:04:45;;;;;;;1.57;1.30;;;;;;;5.73;66.41;100518.25;6196138;28;20226;-68
2023/03/06 01:08:07;;;;;;;1.67;1.27;;;;;;;6.07;66.22;100511.28;6210020;28;20550;-68
2023/03/06 01:11:28;;;;;;;2.27;1.93;;;;;;;5.90;66.88;100514.34;6201757;28;20570;-69
2023/03/06 01:14:49;;;;;;;1.53;1.47;;;;;;;6.25;65.74;100512.53;6224048;28;20224;-69
2023/03/06 01:18:12;;;;;;;2.03;1.70;;;;;;;6.27;66.06;100507.91;6193624;28;20240;-69
2023/03/06 01:21:32;;;;;;;5.60;1.33;;;;;;;5.90;67.25;100507.19;6198477;28;20929;-69
2023/03/06 01:24:53;;;;;;;2.67;2.00;;;;;;;5.05;69.84;100509.09;6196090;28;20327;-70
2023/03/06 01:28:15;;;;;;;16.17;1.60;;;;;;;5.93;66.99;100493.56;6216368;28;20402;-69
2023/03/06 01:31:37;;;;;;;1.13;1.03;;;;;;;5.97;65.63;100486.16;6202516;28;20232;-69
2023/03/06 01:34:59;;;;;;;2.43;1.60;;;;;;;6.03;66.22;100489.22;6220275;28;20359;-69
2023/03/06 01:38:20;;;;;;;1.80;1.70;;;;;;;6.52;65.20;100490.78;6207020;28;20233;-69
2023/03/06 01:41:40;;;;;;;2.53;2.07;;;;;;;6.28;64.71;100485.50;6204540;28;20236;-69
2023/03/06 01:45:05;;;;;;;3.67;1.80;;;;;;;6.32;65.53;100484.34;6208160;28;20264;-70
2023/03/06 01:48:26;;;;;;;3.50;1.70;;;;;;;6.66;64.67;100480.69;6214449;28;20619;-70
2023/03/06 01:51:52;;;;;;;2.83;2.10;;;;;;;6.66;65.19;100471.81;6199312;28;20229;-70
2023/03/06 01:55:15;;;;;;;2.00;1.90;;;;;;;7.06;63.91;100473.00;6208288;28;20273;-69
2023/03/06 01:58:37;;;;;;;2.70;2.50;;;;;;;6.94;64.98;100468.66;6195931;28;20681;-69
2023/03/06 02:02:00;;;;;;;3.67;2.77;;;;;;;7.05;64.46;100476.69;6198801;28;20244;-69
2023/03/06 02:05:22;;;;;;;2.50;2.30;;;;;;;6.85;64.88;100472.06;6216103;28;20236;-70
2023/03/06 02:08:46;;;;;;;7.57;3.57;;;;;;;6.55;66.01;100464.63;6198491;28;20254;-70
2023/03/06 02:12:11;;;;;;;6.97;4.43;;;;;;;6.39;67.91;100466.81;6209969;28;20259;-70
2023/03/06 02:15:31;;;;;;;4.63;2.20;;;;;;;6.48;66.95;100468.78;6218620;28;20237;-70
2023/03/06 02:18:53;;;;;;;4.43;3.27;;;;;;;6.58;66.64;100469.75;6210808;28;20232;-70
2023/03/06 02:22:15;;;;;;;3.40;3.10;;;;;;;6.60;66.73;100464.25;6206117;28;20232;-69
2023/03/06 02:25:41;;;;;;;4.20;3.00;;;;;;;5.95;69.47;100464.88;6215734;28;20228;-70
2023/03/06 02:29:03;;;;;;;3.87;2.60;;;;;;;5.80;69.83;100467.84;6185603;28;20233;-69
2023/03/06 02:32:24;;;;;;;5.30;4.37;;;;;;;5.41;73.18;100469.84;6202136;28;21123;-69
2023/03/06 02:35:49;;;;;;;5.43;4.23;;;;;;;5.39;73.45;100463.78;6211086;28;20237;-69
2023/03/06 02:39:10;;;;;;;9.23;4.97;;;;;;;5.82;72.36;100449.88;6220564;28;20232;-69
2023/03/06 02:42:33;;;;;;;5.90;4.50;;;;;;;6.05;71.76;100449.00;6231472;28;20228;-70
2023/03/06 02:45:54;;;;;;;8.57;5.60;;;;;;;6.21;70.82;100439.66;6222877;28;20308;-70
2023/03/06 02:49:15;;;;;;;5.87;4.40;;;;;;;6.40;69.81;100437.22;6220872;28;20230;-71
2023/03/06 02:52:36;;;;;;;5.00;4.13;;;;;;;6.49;69.08;100434.81;6199615;28;22641;-70
2023/03/06 02:55:57;;;;;;;7.73;5.80;;;;;;;6.63;68.77;100446.16;6216484;28;20217;-69
2023/03/06 02:59:20;;;;;;;4.57;3.60;;;;;;;6.68;68.31;100435.03;6205143;28;20229;-70
2023/03/06 03:02:41;;;;;;;6.13;5.23;;;;;;;6.26;69.74;100423.22;6200097;28;20601;-69
2023/03/06 03:06:04;;;;;;;5.83;4.40;;;;;;;5.19;73.83;100423.47;6213581;28;20588;-69
2023/03/06 03:09:27;;;;;;;6.33;4.80;;;;;;;5.51;73.53;100417.41;6220657;28;20241;-70
2023/03/06 03:12:48;;;;;;;5.83;4.77;;;;;;;5.58;73.11;100416.00;6218072;28;20228;-69
2023/03/06 03:16:14;;;;;;;7.67;5.10;;;;;;;5.41;74.03;100413.72;6203160;28;20324;-70
2023/03/06 03:19:35;;;;;;;4.90;3.63;;;;;;;5.52;73.38;100404.91;6189810;28;20218;-69
2023/03/06 03:22:56;;;;;;;4.67;4.20;;;;;;;5.90;71.47;100402.00;6204232;28;20513;-70
2023/03/06 03:26:19;;;;;;;3.73;3.07;;;;;;;6.17;70.30;100400.72;6211414;28;20241;-69
2023/03/06 03:29:56;;;;;;;8.60;3.60;;;;;;;5.48;72.22;100396.28;6217915;28;20229;-70
2023/03/06 03:33:19;;;;;;;6.03;4.57;;;;;;;5.78;71.00;100394.91;6201401;28;20237;-69
2023/03/06 03:36:40;;;;;;;6.97;5.50;;;;;;;5.37;71.06;100392.69;6185268;28;20265;-70
2023/03/06 03:40:05;;;;;;;6.93;3.83;;;;;;;5.66;70.78;100389.53;6208349;28;20224;-69
2023/03/06 03:43:26;;;;;;;6.50;4.33;;;;;;;5.85;69.99;100393.47;6194687;28;20839;-70
2023/03/06 03:46:48;;;;;;;9.77;3.83;;;;;;;5.13;72.12;100392.69;6204524;28;20229;-70
2023/03/06 03:50:15;;;;;;;5.73;4.13;;;;;;;5.86;69.21;100388.00;6232110;28;20240;-70
2023/03/06 03:53:36;;;;;;;4.10;2.57;;;;;;;6.03;67.22;100378.72;6190141;28;20233;-69
2023/03/06 03:56:58;;;;;;;4.77;3.40;;;;;;;6.23;66.87;100384.19;6201976;28;20541;-70
2023/03/06 04:00:25;;;;;;;4.63;4.23;;;;;;;5.51;67.65;100381.81;6212201;28;20225;-70
2023/03/06 04:03:56;;;;;;;5.67;3.33;;;;;;;6.05;67.08;100376.75;6209359;28;20236;-69
2023/03/06 04:07:18;;;;;;;7.83;5.07;;;;;;;6.08;66.15;100379.19;6199237;28;20236;-70
2023/03/06 04:10:40;;;;;;;3.03;2.73;;;;;;;6.26;66.00;100375.91;6201046;28;20563;-69
2023/03/06 04:14:03;;;;;;;6.27;3.33;;;;;;;6.29;64.90;100378.34;6210263;28;20240;-70
2023/03/06 04:17:25;;;;;;;3.40;3.00;;;;;;;6.29;64.68;100373.00;6216519;28;20229;-69
2023/03/06 04:20:48;;;;;;;3.50;2.57;;;;;;;6.14;65.66;100370.66;6205223;28;20307;-69
2023/03/06 04:24:11;;;;;;;3.23;2.57;;;;;;;5.78;66.73;100365.50;6208044;28;20225;-70
2023/03/06 04:27:32;;;;;;;5.77;2.53;;;;;;;5.95;66.83;100354.34;6176275;28;20224;-70
2023/03/06 04:30:53;;;;;;;2.47;2.27;;;;;;;5.62;67.16;100360.47;6209167;28;20234;-69
2023/03/06 04:34:14;;;;;;;4.67;2.67;;;;;;;5.44;68.25;100356.53;6213712;28;20344;-70
2023/03/06 04:37:36;;;;;;;2.83;2.20;;;;;;;5.66;67.71;100364.59;6203760;28;20868;-70
2023/03/06 04:40:58;;;;;;;6.20;4.03;;;;;;;5.69;68.49;100357.19;6210094;28;20303;-69
2023/03/06 04:44:19;;;;;;;3.57;2.67;;;;;;;5.65;67.99;100358.38;6201228;28;20245;-69
2023/03/06 04:47:40;;;;;;;4.07;3.67;;;;;;;5.25;70.24;100361.56;6198692;28;20225;-70
2023/03/06 04:51:01;;;;;;;2.93;2.60;;;;;;;5.43;69.70;100349.47;6216717;28;20630;-71
2023/03/06 04:54:22;;;;;;;4.57;3.30;;;;;;;5.72;68.40;100348.06;6201129;28;20237;-70
2023/03/06 04:57:46;;;;;;;4.30;3.60;;;;;;;5.74;68.85;100343.47;6211280;28;20229;-70
2023/03/06 05:01:07;;;;;;;4.30;2.60;;;;;;;5.62;66.88;100336.41;6214035;28;20542;-69
2023/03/06 05:04:28;;;;;;;2.87;1.90;;;;;;;5.60;66.46;100341.00;6207918;28;20236;-70
2023/03/06 05:07:49;;;;;;;2.77;1.70;;;;;;;5.30;66.02;100335.34;6206583;28;20220;-71
2023/03/06 05:11:10;;;;;;;3.33;1.90;;;;;;;5.04;66.49;100342.66;6218820;28;20236;-69
2023/03/06 05:14:34;;;;;;;1.10;1.10;;;;;;;5.01;66.78;100340.19;6215907;28;20236;-71
2023/03/06 05:17:55;;;;;;;2.33;1.83;;;;;;;4.63;68.05;100335.00;6204210;28;20266;-70
2023/03/06 05:21:16;;;;;;;2.67;1.20;;;;;;;4.87;67.43;100329.69;6208225;28;20233;-70
2023/03/06 05:24:37;;;;;;;1.07;1.00;;;;;;;4.61;69.01;100339.59;6211679;28;20233;-69
2023/03/06 05:27:58;;;;;;;1.13;1.07;;;;;;;4.52;70.54;100337.63;6208817;28;20228;-70
2023/03/06 05:31:20;;;;;;;1.90;1.00;;;;;;;4.64;71.05;100334.06;6211276;28;20233;-70
2023/03/06 05:34:40;;;;;;;1.87;1.77;;;;;;;5.04;70.47;100331.97;6212863;28;20240;-71
2023/03/06 05:38:02;;;;;;;3.50;2.70;;;;;;;4.39;74.35;100334.13;6210891;28;20228;-70
2023/03/06 05:41:22;;;;;;;5.00;2.57;;;;;;;4.99;72.83;100328.75;6191794;28;20225;-70
2023/03/06 05:44:44;;;;;;;3.33;2.77;;;;;;;5.04;72.84;100331.97;6210395;28;21774;-69
2023/03/06 05:48:07;;;;;;;4.53;2.43;;;;;;;4.68;75.02;100332.84;6211731;28;20588;-69
2023/03/06 05:51:28;;;;;;;5.13;2.70;;;;;;;5.38;71.99;100323.06;6216508;28;20236;-70
2023/03/06 05:54:50;;;;;;;4.00;3.30;;;;;;;5.21;72.33;100320.88;6211272;28;20256;-70
2023/03/06 05:58:11;;;;;;;4.43;3.43;;;;;;;5.01;73.96;100328.66;6194859;28;20232;-69
2023/03/06 06:01:32;;;;;;;4.27;3.40;;;;;;;4.11;77.49;100331.72;6195889;28;20628;-69
2023/03/06 06:04:57;;;;;;;2.90;2.70;;;;;;;4.52;77.59;100324.28;6218414;28;21959;-70
2023/03/06 06:08:18;;;;;;;3.67;2.77;;;;;;;4.55;76.84;100328.50;6206395;28;20224;-69
2023/03/06 06:11:39;;;;;;;4.30;3.90;;;;;;;4.67;76.14;100319.63;6199665;28;20232;-70
2023/03/06 06:15:00;;;;;;;4.07;3.03;;;;;;;4.73;75.90;100322.72;6208826;28;20332;-70
2023/03/06 06:18:21;;;;;;;4.77;3.43;;;;;;;4.29;77.49;100319.75;6210261;28;20637;-70
2023/03/06 06:21:43;;;;;;;6.90;5.00;;;;;;;4.39;78.08;100318.13;6196475;28;20245;-70
2023/03/06 06:25:05;;;;;;;5.33;3.80;;;;;;;4.51;78.15;100325.22;6207211;28;20233;-70
2023/03/06 06:28:27;;;;;;;3.60;2.83;;;;;;;4.13;78.66;100331.63;6209584;28;20232;-69
2023/03/06 06:31:48;;;;;;;4.50;3.40;;;;;;;4.53;78.00;100331.31;6190207;28;20225;-71
2023/03/06 06:35:14;;;;;;;5.60;3.50;;;;;;;4.29;78.91;100329.56;6216808;28;20671;-70
2023/03/06 06:38:36;;;;;;;4.07;3.70;;;;;;;4.45;78.82;100324.81;6199330;28;20229;-70
2023/03/06 06:41:57;;;;;;;4.73;3.53;;;;;;;4.73;77.27;100327.19;6195763;28;20237;-72
2023/03/06 06:45:17;;;;;;;4.00;3.60;;;;;;;5.38;75.17;100311.56;6204723;28;20229;-71
2023/03/06 06:48:38;;;;;;;6.73;5.20;;;;;;;4.85;77.38;100312.94;6205434;28;20244;-69
2023/03/06 06:51:59;;;;;;;4.43;4.00;;;;;;;5.11;76.05;100319.81;6195438;28;20232;-70
2023/03/06 06:55:22;;;;;;;9.00;4.43;;;;;;;5.23;76.01;100313.59;6223367;28;20590;-70
2023/03/06 06:58:42;;;;;;;6.60;5.40;;;;;;;5.28;75.45;100319.41;6207787;28;20354;-70
2023/03/06 07:02:04;;;;;;;5.67;4.37;;;;;;;5.06;76.43;100323.81;6203063;28;20233;-68
2023/03/06 07:05:25;;;;;;;5.20;4.13;;;;;;;5.15;75.71;100317.78;6219146;28;20256;-69
2023/03/06 07:08:46;;;;;;;3.17;2.87;;;;;;;4.58;78.29;100325.63;6210774;28;20732;-68
2023/03/06 07:12:08;;;;;;;6.97;4.80;;;;;;;5.41;75.31;100317.50;6203066;28;20634;-70
2023/03/06 07:15:29;;;;;;;8.03;3.63;;;;;;;5.34;75.72;100320.78;6215388;28;20237;-70
2023/03/06 07:18:50;;;;;;;4.13;3.27;;;;;;;6.08;73.06;100313.16;6201737;28;20243;-68
2023/03/06 07:22:11;;;;;;;3.63;3.33;;;;;;;5.75;72.34;100315.78;6204287;28;20248;-69
2023/03/06 07:25:32;;;;;;;4.87;3.67;;;;;;;5.97;72.18;100306.94;6217265;28;20237;-70
2023/03/06 07:28:54;;;;;;;6.07;3.40;;;;;;;5.54;73.40;100322.78;6202739;28;20233;-71
2023/03/06 07:32:15;;;;;;;6.50;3.73;;;;;;;5.63;73.54;100322.06;6198513;28;20224;-70
2023/03/06 07:35:36;;;;;;;3.13;2.83;;;;;;;5.72;74.55;100326.69;6221824;28;20229;-70
2023/03/06 07:38:59;;;;;;;4.03;3.70;;;;;;;5.88;73.01;100327.25;6199975;28;20333;-70
2023/03/06 07:42:20;;;;;;;3.63;3.20;;;;;;;5.72;73.25;100332.03;6192701;28;20646;-69
2023/03/06 07:45:57;;;;;;;6.33;3.70;;;;;;;4.98;74.71;100342.25;6194838;28;20225;-71
2023/03/06 07:49:18;;;;;;;5.80;4.03;;;;;;;5.34;73.95;100343.00;6211872;28;20264;-70
2023/03/06 07:52:39;;;;;;;4.53;4.13;;;;;;;5.47;74.29;100341.09;6205216;28;20260;-68
2023/03/06 07:56:00;;;;;;;5.43;3.50;;;;;;;6.08;71.59;100345.25;6208189;28;20265;-70
2023/03/06 07:59:21;;;;;;;6.30;5.63;;;;;;;5.78;72.64;100349.44;6208855;28;20229;-71
2023/03/06 08:02:43;;;;;;;8.47;4.87;;;;;;;5.72;73.06;100347.22;6202276;28;20254;-68
2023/03/06 08:06:06;;;;;;;7.57;5.53;;;;;;;5.48;74.06;100342.81;6214358;28;20241;-68
2023/03/06 08:09:27;;;;;;;7.13;5.20;;;;;;;5.60;73.07;100347.22;6197304;28;20247;-70
2023/03/06 08:12:47;;;;;;;5.33;4.83;;;;;;;6.32;71.57;100345.16;6198028;28;20606;-69
2023/03/06 08:16:09;;;;;;;10.47;6.47;;;;;;;6.31;71.17;100338.06;6198698;28;20249;-68
2023/03/06 08:19:34;;;;;;;8.80;5.03;;;;;;;5.50;74.82;100354.25;6198060;28;20749;-69
2023/03/06 08:22:54;;;;;;;13.20;6.40;;;;;;;5.88;71.99;100353.16;6190334;28;20232;-70
2023/03/06 08:26:19;;;;;;;7.37;5.23;;;;;;;6.13;71.53;100361.78;6199934;28;20245;-70
2023/03/06 08:29:39;;;;;;;7.70;4.27;;;;;;;6.08;71.78;100360.44;6206081;28;20274;-71
2023/03/06 08:33:00;;;;;;;5.87;4.00;;;;;;;5.09;74.71;100369.84;6197564;28;20233;-67
2023/03/06 08:36:23;;;;;;;6.60;4.17;;;;;;;5.04;75.48;100364.00;6210759;28;20222;-68
2023/03/06 08:39:43;;;;;;;3.47;2.60;;;;;;;4.91;75.97;100373.88;6206673;28;20233;-68
2023/03/06 08:43:08;;;;;;;3.77;3.43;;;;;;;5.93;73.66;100365.19;6209153;28;20229;-68
2023/03/06 08:46:30;;;;;;;5.43;3.93;;;;;;;5.56;73.96;100367.13;6199642;28;20273;-70
2023/03/06 08:49:51;;;;;;;6.07;3.70;;;;;;;5.58;74.55;100367.00;6207121;28;20319;-69
2023/03/06 08:53:13;;;;;;;4.27;3.60;;;;;;;5.86;74.13;100363.94;6210156;28;20244;-70
2023/03/06 08:56:34;;;;;;;4.70;4.20;;;;;;;6.68;70.70;100360.06;6197158;28;20540;-70
2023/03/06 08:59:56;;;;;;;6.30;4.53;;;;;;;6.58;69.08;100364.44;6206698;28;20521;-69
2023/03/06 09:03:16;;;;;;;3.70;3.40;;;;;;;6.71;68.42;100373.22;6223983;28;20233;-68
2023/03/06 09:06:39;;;;;;;5.33;2.77;;;;;;;5.03;72.76;100378.31;6196197;28;20233;-69
2023/03/06 09:10:01;;;;;;;4.50;2.83;;;;;;;6.02;70.08;100367.16;6205179;28;20232;-70
2023/03/06 09:13:22;;;;;;;7.30;3.83;;;;;;;6.20;68.92;100370.19;6210866;28;20608;-69
2023/03/06 09:16:46;;;;;;;2.30;2.10;;;;;;;6.00;70.28;100379.78;6196176;28;20327;-69
2023/03/06 09:20:09;;;;;;;4.20;3.10;;;;;;;6.57;67.57;100373.47;6214758;28;20229;-69
2023/03/06 09:23:30;;;;;;;4.00;2.87;;;;;;;7.28;65.99;100371.09;6197887;28;20552;-71
2023/03/06 09:26:53;;;;;;;3.17;2.90;;;;;;;6.63;66.92;100376.53;6189769;28;20241;-69
2023/03/06 09:30:15;;;;;;;7.03;3.00;;;;;;;6.45;67.66;100368.13;6203574;28;20233;-71
2023/03/06 09:33:36;;;;;;;5.13;3.73;;;;;;;6.44;67.66;100374.47;6207848;28;20232;-71
2023/03/06 09:36:56;;;;;;;3.47;2.53;;;;;;;6.84;66.81;100380.09;6199754;28;20244;-68
2023/03/06 09:40:24;;;;;;;5.93;3.60;;;;;;;6.64;67.12;100378.19;6199294;28;20228;-69
2023/03/06 09:43:49;;;;;;;8.47;3.40;;;;;;;6.13;68.06;100375.16;6208147;28;20220;-68
2023/03/06 09:47:26;;;;;;;3.43;3.13;;;;;;;7.45;66.60;100383.13;6198961;28;21148;-69
2023/03/06 09:50:54;;;;;;;5.73;3.93;;;;;;;8.48;62.36;100369.66;6209133;28;20781;-69
2023/03/06 09:54:16;;;;;;;3.73;3.07;;;;;;;8.35;60.79;100374.41;6206372;28;20589;-69
2023/03/06 09:57:41;;;;;;;6.17;3.77;;;;;;;8.69;60.72;100367.75;6198733;28;20225;-74
2023/03/06 10:01:12;;;;;;;5.23;3.90;;;;;;;7.75;60.93;100369.78;6203822;28;20265;-72
2023/03/06 10:04:37;;;;;;;4.87;4.37;;;;;;;6.26;68.46;100378.59;6176541;28;20237;-72
2023/03/06 10:08:03;;;;;;;6.77;4.43;;;;;;;8.23;61.69;100370.06;6204564;28;20591;-71
2023/03/06 10:11:31;;;;;;;4.83;3.50;;;;;;;8.30;61.02;100361.41;6211164;28;20253;-72
2023/03/06 10:15:02;;;;;;;7.07;3.83;;;;;;;12.18;50.36;100349.81;6212526;28;20845;-71
2023/03/06 10:18:24;;;;;;;4.10;3.37;;;;;;;13.56;45.11;100347.44;6215491;28;20236;-69
2023/03/06 10:21:57;;;;;;;3.47;3.10;;;;;;;10.90;49.47;100355.72;6199265;28;20320;-69
2023/03/06 10:25:24;;;;;;;5.80;3.00;;;;;;;9.55;53.49;100367.88;6214747;28;20332;-70
2023/03/06 10:28:53;;;;;;;5.70;4.20;;;;;;;8.64;58.97;100359.25;6215790;28;20232;-69
2023/03/06 10:32:27;;;;;;;3.30;3.00;;;;;;;8.26;59.02;100351.88;6197448;28;20224;-69
2023/03/06 10:35:50;;;;;;;6.37;2.67;;;;;;;8.88;57.86;100351.69;6221246;28;20284;-71
2023/03/06 10:39:18;;;;;;;3.03;2.77;;;;;;;8.49;57.29;100347.19;6219598;28;20308;-70
2023/03/06 10:42:39;;;;;;;3.03;2.13;;;;;;;9.55;56.23;100347.19;6188121;28;20340;-69
2023/03/06 10:46:00;;;;;;;2.40;2.20;;;;;;;14.80;43.20;100323.38;6209946;28;20548;-71
2023/03/06 10:49:34;;;;;;;2.60;2.40;;;;;;;10.03;51.30;100330.97;6212646;28;20236;-71
2023/03/06 10:53:05;;;;;;;4.33;2.77;;;;;;;13.89;43.52;100324.78;6198521;28;20240;-70
2023/03/06 10:56:31;;;;;;;5.27;2.53;;;;;;;15.11;40.13;100316.06;6211862;28;20335;-69
2023/03/06 10:59:54;;;;;;;2.43;2.23;;;;;;;12.64;44.85;100331.31;6213238;28;20301;-69
2023/03/06 11:03:22;;;;;;;4.17;2.00;;;;;;;10.21;49.37;100329.25;6197582;28;20375;-69
2023/03/06 11:06:43;;;;;;;2.67;2.40;;;;;;;7.87;56.05;100341.91;6194498;28;20233;-69
2023/03/06 11:10:17;;;;;;;3.00;2.17;;;;;;;7.82;57.39;100336.91;6216419;28;20708;-69
2023/03/06 11:13:40;;;;;;;6.33;2.70;;;;;;;7.98;57.84;100339.13;6207434;28;20266;-70
2023/03/06 11:17:01;;;;;;;1.97;1.80;;;;;;;7.74;57.41;100336.72;6207888;28;20229;-69
2023/03/06 11:20:25;;;;;;;2.70;2.50;;;;;;;8.78;55.77;100337.38;6211437;28;20225;-69
2023/03/06 11:23:46;;;;;;;4.50;3.13;;;;;;;8.05;57.84;100343.00;6198566;28;20244;-69
2023/03/06 11:27:23;;;;;;;2.53;2.33;;;;;;;7.60;58.71;100338.88;6204883;28;20228;-69
2023/03/06 11:30:48;;;;;;;5.37;3.60;;;;;;;8.05;56.39;100329.59;6210318;28;20229;-70
2023/03/06 11:34:18;;;;;;;4.07;1.97;;;;;;;8.86;53.22;100326.78;6182650;28;20241;-70
2023/03/06 11:37:45;;;;;;;3.67;2.43;;;;;;;9.05;52.32;100307.13;6209619;28;20267;-69
2023/03/06 11:41:15;;;;;;;2.47;1.50;;;;;;;10.97;47.52;100311.78;6217345;28;20501;-69
2023/03/06 11:44:52;;;;;;;2.80;2.07;;;;;;;14.78;38.19;100289.28;6210880;28;20224;-70
2023/03/06 11:48:22;;;;;;;3.60;1.93;;;;;;;14.82;37.90;100296.91;6201226;28;20244;-69
2023/03/06 11:51:50;;;;;;;1.50;1.40;;;;;;;15.15;37.69;100294.81;6188860;28;20625;-70
2023/03/06 11:55:15;;;;;;;1.53;1.43;;;;;;;13.89;38.33;100292.28;6210669;28;20229;-73
2023/03/06 11:59:01;;;;;;;2.00;1.90;;;;;;;12.82;40.82;100296.91;6209305;28;20241;-69
2023/03/06 12:02:39;;;;;;;1.10;1.00;;;;;;;12.62;38.82;100295.47;6198918;28;20233;-69
2023/03/06 12:06:08;;;;;;;1.00;0.90;;;;;;;10.94;43.06;100290.53;6209878;28;20324;-73
2023/03/06 12:09:41;;;;;;;1.20;1.10;;;;;;;10.14;45.23;100293.09;6208009;28;20322;-69
2023/03/06 12:13:33;;;;;;;2.03;1.83;;;;;;;9.31;47.95;100290.28;6209682;28;20660;-70
2023/03/06 12:17:06;;;;;;;1.60;1.30;;;;;;;15.12;37.23;100270.75;6180280;28;20238;-71
2023/03/06 12:20:39;;;;;;;1.20;1.20;;;;;;;16.16;34.03;100271.72;6210799;28;20229;-69
2023/03/06 12:24:17;;;;;;;0.67;0.67;;;;;;;15.08;33.95;100274.88;6212193;28;20229;-69
2023/03/06 12:27:47;;;;;;;3.90;3.03;;;;;;;12.56;39.13;100279.91;6197814;28;20220;-69
2023/03/06 12:31:19;;;;;;;0.50;0.50;;;;;;;13.34;37.28;100277.72;6205396;28;20228;-71
2023/03/06 12:35:05;;;;;;;0.87;0.70;;;;;;;13.39;36.10;100270.78;6187712;28;20737;-68
2023/03/06 12:39:06;;;;;;;0.60;0.60;;;;;;;14.71;33.65;100258.44;6195794;28;20236;-70
2023/03/06 12:42:52;;;;;;;1.50;0.40;;;;;;;12.93;36.94;100260.56;6187922;28;22274;-70
2023/03/06 12:46:16;;;;;;;0.70;0.70;;;;;;;13.42;35.59;100256.91;6189429;28;20250;-71
2023/03/06 12:49:41;;;;;;;1.97;0.70;;;;;;;12.50;36.69;100258.91;6193790;28;20229;-71
2023/03/06 12:53:04;;;;;;;0.60;0.50;;;;;;;14.05;35.54;100259.72;6195511;28;21839;-71
2023/03/06 12:56:27;;;;;;;0.53;0.53;;;;;;;14.45;33.43;100257.91;6199727;28;21015;-72
2023/03/06 12:59:49;;;;;;;4.50;0.77;;;;;;;14.38;34.48;100242.34;6208138;28;20225;-69
2023/03/06 13:03:17;;;;;;;0.70;0.70;;;;;;;12.67;35.08;100246.28;6198450;28;20801;-70
2023/03/06 13:07:00;;;;;;;4.27;0.50;;;;;;;11.48;38.61;100253.56;6193965;28;20225;-70
2023/03/06 13:10:25;;;;;;;1.30;0.77;;;;;;;11.36;38.15;100254.84;6215072;28;20228;-69
2023/03/06 13:13:48;;;;;;;0.77;0.50;;;;;;;10.10;41.97;100248.63;6212002;28;20594;-68
2023/03/06 13:17:42;;;;;;;1.90;1.13;;;;;;;10.52;42.34;100248.09;6166577;28;1042415;-70
2023/03/06 13:21:04;;;;;;;0.97;0.87;;;;;;;10.11;43.56;100246.78;6132749;28;21908;-74
2023/03/06 13:24:26;;;;;;;2.00;1.17;;;;;;;10.96;42.37;100249.94;6128702;28;20245;-73
2023/03/06 13:28:02;;;;;;;4.83;0.70;;;;;;;10.24;43.99;100250.00;6202044;28;20220;-74
2023/03/06 13:31:29;;;;;;;0.50;0.50;;;;;;;8.87;47.87;100253.22;6206253;28;20348;-70
2023/03/06 13:34:50;;;;;;;1.07;1.07;;;;;;;9.07;47.79;100256.75;6206093;28;20315;-69
2023/03/06 13:38:30;;;;;;;1.03;0.80;;;;;;;8.76;48.67;100256.88;6210716;28;20630;-70
2023/03/06 13:41:57;;;;;;;1.60;0.80;;;;;;;8.46;48.86;100251.63;6201734;28;20958;-73
2023/03/06 13:45:23;;;;;;;1.47;1.37;;;;;;;9.49;47.79;100247.38;6222755;28;20225;-72
2023/03/06 13:48:46;;;;;;;2.17;1.23;;;;;;;9.80;46.02;100243.47;6212448;28;20224;-73
2023/03/06 13:52:10;;;;;;;2.13;2.00;;;;;;;8.87;46.46;100242.47;6202873;28;20261;-73
2023/03/06 13:55:39;;;;;;;0.87;0.87;;;;;;;9.65;46.37;100250.31;6211207;28;20586;-73
2023/03/06 13:59:20;;;;;;;2.83;1.10;;;;;;;8.88;47.21;100244.19;6212191;28;20229;-71
2023/03/06 14:02:56;;;;;;;1.47;0.70;;;;;;;8.97;48.11;100248.69;6200521;28;20606;-69
2023/03/06 14:07:05;;;;;;;1.33;1.33;;;;;;;10.99;43.89;100239.66;6213244;28;20244;-70
2023/03/06 14:10:32;;;;;;;4.90;2.13;;;;;;;13.44;39.63;100229.66;6143404;28;20247;-71
2023/03/06 14:13:56;;;;;;;0.80;0.80;;;;;;;13.95;37.25;100218.41;6216586;28;20220;-69
2023/03/06 14:17:25;;;;;;;1.63;0.87;;;;;;;14.47;36.71;100221.44;6202142;28;20602;-73
2023/03/06 14:20:50;;;;;;;1.13;0.90;;;;;;;12.36;39.39;100223.56;6219576;28;20225;-72
2023/03/06 14:24:15;;;;;;;2.10;1.70;;;;;;;12.94;39.46;100210.84;6203972;28;20260;-72
2023/03/06 14:27:51;;;;;;;1.43;1.33;;;;;;;12.40;38.99;100216.81;6203909;28;20641;-69
2023/03/06 14:31:16;;;;;;;0.93;0.87;;;;;;;11.72;41.54;100213.31;6203318;28;20229;-73
2023/03/06 14:34:40;;;;;;;6.17;1.03;;;;;;;11.79;41.36;100209.78;6209557;28;20233;-69
2023/03/06 14:38:04;;;;;;;1.00;0.90;;;;;;;11.46;42.24;100207.84;6203253;28;20265;-70
2023/03/06 14:41:27;;;;;;;1.50;1.00;;;;;;;11.09;43.19;100213.50;6207826;28;20611;-69
2023/03/06 14:45:00;;;;;;;0.93;0.93;;;;;;;10.48;43.24;100203.59;6207646;28;20230;-69
2023/03/06 14:48:22;;;;;;;1.20;1.00;;;;;;;10.06;44.80;100201.41;6215988;28;20224;-68
2023/03/06 14:51:45;;;;;;;0.80;0.80;;;;;;;10.30;43.94;100198.19;6197246;28;20225;-69
2023/03/06 14:55:17;;;;;;;0.90;0.90;;;;;;;10.25;43.79;100200.47;6210447;28;20237;-71
2023/03/06 14:58:45;;;;;;;0.83;0.83;;;;;;;10.07;44.23;100202.25;6191634;28;20228;-70
2023/03/06 15:02:11;;;;;;;1.57;1.00;;;;;;;9.44;45.98;100202.09;6187578;28;20326;-73
2023/03/06 15:05:33;;;;;;;2.70;0.80;;;;;;;9.95;45.18;100198.06;6216150;28;20225;-73
2023/03/06 15:09:00;;;;;;;0.60;0.60;;;;;;;9.51;45.25;100194.28;6204216;28;20233;-73
2023/03/06 15:12:37;;;;;;;1.53;1.20;;;;;;;9.58;45.02;100192.69;6208540;28;20236;-73
2023/03/06 15:15:59;;;;;;;0.60;0.60;;;;;;;9.40;46.32;100194.44;6211845;28;20229;-73
2023/03/06 15:19:22;;;;;;;4.00;2.20;;;;;;;9.51;45.97;100189.72;6200776;28;20249;-73
2023/03/06 15:22:43;;;;;;;2.97;1.43;;;;;;;8.99;47.69;100186.75;6212894;28;20225;-75
2023/03/06 15:26:20;;;;;;;4.37;1.23;;;;;;;9.18;48.05;100181.34;6215571;28;20241;-74
2023/03/06 15:29:40;;;;;;;2.40;1.10;;;;;;;9.20;48.96;100188.25;6209742;28;20324;-72
2023/03/06 15:33:22;;;;;;;1.10;1.10;;;;;;;8.87;48.07;100183.34;6211685;28;20224;-74
2023/03/06 15:36:47;;;;;;;1.20;0.67;;;;;;;9.80;45.51;100176.19;6210845;28;20237;-74
2023/03/06 15:40:18;;;;;;;0.70;0.70;;;;;;;9.50;45.48;100177.28;6224909;28;20232;-74
2023/03/06 15:43:40;;;;;;;1.53;1.20;;;;;;;9.65;45.00;100170.44;6206461;28;20308;-73
2023/03/06 15:47:01;;;;;;;2.00;1.50;;;;;;;9.49;46.00;100163.97;6213332;28;20220;-73
2023/03/06 15:50:23;;;;;;;1.80;1.07;;;;;;;9.39;46.54;100160.44;6219907;28;20316;-73
2023/03/06 15:53:45;;;;;;;0.80;0.80;;;;;;;9.70;46.46;100169.16;6217078;28;20228;-73
2023/03/06 15:57:13;;;;;;;1.80;0.70;;;;;;;9.10;46.29;100160.53;6210649;28;20374;-72
2023/03/06 16:00:37;;;;;;;0.63;0.50;;;;;;;8.92;47.24;100156.88;6211381;28;20241;-73